Time;durP1;ratioP1;P1;durP2;ratioP2;P2;SDS_P1;SDS_P2;PMS_P1;PMS_P2;Temp;Humidity;BMP_temperature;BMP_pressure;BME280_temperature;BME280_humidity;BME280_pressure;Samples;Min_cycle;Max_cycle;Signal;HPM_P1;HPM_P2
2021/05/17 00:00:53;;;;;;;23.97;22.30;;;;;;;;;;5038838;28;20444;-86
2021/05/17 00:03:21;;;;;;;22.37;20.87;;;;;;;;;;5038563;28;20417;-86
2021/05/17 00:05:49;;;;;;;23.70;22.10;;;;;;;;;;5039698;28;20435;-87
2021/05/17 00:08:16;;;;;;;23.17;21.57;;;;;;;;;;5039294;28;20446;-86
2021/05/17 00:10:43;;;;;;;22.50;21.10;;;;;;;;;;5041214;28;20443;-86
2021/05/17 00:13:10;;;;;;;23.53;21.83;;;;;;;;;;5040145;28;20510;-85
2021/05/17 00:15:39;;;;;;;25.00;23.30;;;;;;;;;;5040692;28;20442;-85
2021/05/17 00:18:06;;;;;;;25.50;23.73;;;;;;;;;;5040943;28;20857;-86
2021/05/17 00:20:34;;;;;;;25.80;24.00;;;;;;;;;;5038353;28;20446;-86
2021/05/17 00:23:02;;;;;;;25.97;24.07;;;;;;;;;;5038445;28;20813;-86
2021/05/17 00:25:28;;;;;;;26.63;24.63;;;;;;;;;;5054894;28;20426;-86
2021/05/17 00:27:56;;;;;;;25.33;23.60;;;;;;;;;;5061493;28;20406;-86
2021/05/17 00:30:24;;;;;;;25.10;23.33;;;;;;;;;;5061521;28;20504;-85
2021/05/17 00:32:51;;;;;;;25.93;24.13;;;;;;;;;;5049360;28;20474;-85
2021/05/17 00:35:19;;;;;;;25.07;23.47;;;;;;;;;;5038021;28;20422;-86
2021/05/17 00:37:47;;;;;;;28.10;26.03;;;;;;;;;;5038290;28;20549;-85
2021/05/17 00:40:15;;;;;;;27.30;25.20;;;;;;;;;;5037912;28;20528;-86
2021/05/17 00:42:42;;;;;;;27.17;25.10;;;;;;;;;;5037861;28;20406;-85
2021/05/17 00:45:11;;;;;;;28.33;26.10;;;;;;;;;;5037452;28;20413;-86
2021/05/17 00:47:40;;;;;;;26.50;24.57;;;;;;;;;;5038147;28;20421;-86
2021/05/17 00:50:08;;;;;;;28.23;26.00;;;;;;;;;;5037166;28;20461;-85
2021/05/17 00:52:35;;;;;;;25.67;23.77;;;;;;;;;;5036826;28;20478;-85
2021/05/17 00:55:04;;;;;;;27.83;25.73;;;;;;;;;;5019271;28;20965;-86
2021/05/17 00:57:31;;;;;;;25.40;23.60;;;;;;;;;;5036545;28;20406;-85
2021/05/17 00:59:59;;;;;;;27.10;25.20;;;;;;;;;;5036649;28;20421;-86
2021/05/17 01:02:26;;;;;;;26.53;24.57;;;;;;;;;;5036656;28;20417;-86
2021/05/17 01:04:53;;;;;;;26.13;24.43;;;;;;;;;;5036318;28;20401;-86
2021/05/17 01:07:24;;;;;;;24.97;23.23;;;;;;;;;;5019096;28;20420;-86
2021/05/17 01:09:52;;;;;;;25.33;23.63;;;;;;;;;;5036224;28;20447;-85
2021/05/17 01:12:22;;;;;;;25.50;23.80;;;;;;;;;;5019206;28;20442;-86
2021/05/17 01:14:49;;;;;;;26.23;24.30;;;;;;;;;;5036273;28;20446;-86
2021/05/17 01:17:16;;;;;;;25.50;23.90;;;;;;;;;;5036018;28;20459;-86
2021/05/17 01:19:52;;;;;;;26.20;24.40;;;;;;;;;;5036253;28;20450;-85
2021/05/17 01:22:24;;;;;;;25.90;24.10;;;;;;;;;;5036115;28;20418;-86
2021/05/17 01:24:52;;;;;;;25.37;23.63;;;;;;;;;;5036460;28;20772;-86
2021/05/17 01:27:19;;;;;;;27.10;25.10;;;;;;;;;;5036217;28;20446;-85
2021/05/17 01:29:46;;;;;;;25.13;23.20;;;;;;;;;;5036108;28;20479;-86
2021/05/17 01:32:13;;;;;;;24.77;23.07;;;;;;;;;;5036290;28;20401;-86
2021/05/17 01:34:40;;;;;;;24.60;22.77;;;;;;;;;;5036115;28;20497;-86
2021/05/17 01:37:08;;;;;;;26.33;24.10;;;;;;;;;;5035806;28;20427;-86
2021/05/17 01:39:36;;;;;;;23.70;22.10;;;;;;;;;;5035775;28;20406;-86
2021/05/17 01:42:04;;;;;;;26.42;24.33;;;;;;;;;;5036378;28;20409;-86
2021/05/17 01:44:32;;;;;;;27.42;25.45;;;;;;;;;;5035479;28;20216;-86
2021/05/17 01:46:59;;;;;;;24.90;23.30;;;;;;;;;;5018208;28;20246;-85
2021/05/17 01:49:26;;;;;;;25.80;24.00;;;;;;;;;;5036595;28;20426;-86
2021/05/17 01:51:53;;;;;;;26.60;23.90;;;;;;;;;;5035612;28;20409;-86
2021/05/17 01:54:20;;;;;;;23.50;22.00;;;;;;;;;;5035361;28;20478;-86
2021/05/17 01:56:47;;;;;;;23.93;22.43;;;;;;;;;;5035718;28;20442;-86
2021/05/17 01:59:15;;;;;;;24.43;22.73;;;;;;;;;;5035869;28;20409;-86
2021/05/17 02:01:42;;;;;;;25.67;23.55;;;;;;;;;;5035359;28;20445;-86
2021/05/17 02:04:09;;;;;;;24.73;23.13;;;;;;;;;;5035495;28;20236;-86
2021/05/17 02:06:37;;;;;;;23.40;21.80;;;;;;;;;;5017627;28;20482;-86
2021/05/17 02:09:04;;;;;;;25.10;23.20;;;;;;;;;;5035675;28;20403;-86
2021/05/17 02:11:31;;;;;;;25.07;23.30;;;;;;;;;;5034873;28;20442;-85
2021/05/17 02:13:58;;;;;;;23.90;22.40;;;;;;;;;;5035307;28;20483;-86
2021/05/17 02:16:26;;;;;;;24.33;22.80;;;;;;;;;;5034800;28;21006;-86
2021/05/17 02:18:53;;;;;;;25.00;23.13;;;;;;;;;;5035388;28;20528;-85
2021/05/17 02:21:21;;;;;;;24.33;22.70;;;;;;;;;;5034982;28;20933;-86
2021/05/17 02:23:48;;;;;;;24.77;22.87;;;;;;;;;;5035484;28;20451;-86
2021/05/17 02:26:15;;;;;;;25.25;23.00;;;;;;;;;;5034953;28;20448;-86
2021/05/17 02:28:42;;;;;;;24.63;22.83;;;;;;;;;;5034516;28;20283;-86
2021/05/17 02:31:10;;;;;;;23.95;22.35;;;;;;;;;;5034639;28;20975;-85
2021/05/17 02:33:38;;;;;;;25.50;23.70;;;;;;;;;;5035600;28;20223;-86
2021/05/17 02:36:06;;;;;;;23.63;22.13;;;;;;;;;;5034809;28;20676;-86
2021/05/17 02:38:34;;;;;;;24.77;23.23;;;;;;;;;;5034793;28;20446;-86
2021/05/17 02:41:01;;;;;;;24.60;23.00;;;;;;;;;;5034729;28;20187;-86
2021/05/17 02:43:29;;;;;;;25.00;23.20;;;;;;;;;;5034678;28;20530;-86
2021/05/17 02:45:56;;;;;;;24.05;22.63;;;;;;;;;;5017563;28;20195;-85
2021/05/17 02:48:28;;;;;;;23.10;21.60;;;;;;;;;;5034664;28;20635;-85
2021/05/17 02:50:56;;;;;;;23.80;22.40;;;;;;;;;;5034874;28;20468;-86
2021/05/17 02:53:27;;;;;;;22.43;21.00;;;;;;;;;;5017087;28;20281;-86
2021/05/17 02:55:55;;;;;;;21.70;20.30;;;;;;;;;;5034587;28;20410;-86
2021/05/17 02:58:22;;;;;;;22.00;20.70;;;;;;;;;;5035135;28;20226;-86
2021/05/17 03:00:51;;;;;;;25.05;23.35;;;;;;;;;;5034548;28;20416;-86
2021/05/17 03:03:18;;;;;;;23.63;22.13;;;;;;;;;;5034359;28;20191;-86
2021/05/17 03:05:45;;;;;;;23.30;21.90;;;;;;;;;;5034221;28;20817;-86
2021/05/17 03:08:14;;;;;;;23.90;22.30;;;;;;;;;;5034725;28;20192;-86
2021/05/17 03:10:43;;;;;;;23.60;22.03;;;;;;;;;;5017408;28;20462;-86
2021/05/17 03:13:10;;;;;;;23.07;21.57;;;;;;;;;;5034389;28;20506;-86
2021/05/17 03:15:38;;;;;;;22.05;20.65;;;;;;;;;;5034504;28;20442;-86
2021/05/17 03:18:06;;;;;;;22.33;20.90;;;;;;;;;;5034020;28;20195;-86
2021/05/17 03:20:33;;;;;;;22.20;20.80;;;;;;;;;;5034061;28;20466;-86
2021/05/17 03:23:00;;;;;;;20.43;19.23;;;;;;;;;;5034074;28;20431;-85
2021/05/17 03:25:31;;;;;;;21.97;20.47;;;;;;;;;;5034413;28;20434;-86
2021/05/17 03:27:58;;;;;;;21.13;19.73;;;;;;;;;;5034613;28;20455;-86
2021/05/17 03:30:26;;;;;;;21.90;20.50;;;;;;;;;;5034263;28;20227;-86
2021/05/17 03:32:53;;;;;;;22.63;21.17;;;;;;;;;;5037234;28;20478;-86
2021/05/17 03:35:20;;;;;;;22.47;21.10;;;;;;;;;;5037955;28;20807;-85
2021/05/17 03:37:47;;;;;;;20.93;19.63;;;;;;;;;;5038732;28;20914;-86
2021/05/17 03:40:15;;;;;;;21.65;20.20;;;;;;;;;;5038204;28;20430;-86
2021/05/17 03:42:43;;;;;;;20.83;19.55;;;;;;;;;;5037735;28;20195;-86
2021/05/17 03:45:11;;;;;;;21.27;20.00;;;;;;;;;;5020089;28;20206;-86
2021/05/17 03:47:38;;;;;;;20.63;19.43;;;;;;;;;;5038080;28;20454;-86
2021/05/17 03:50:05;;;;;;;20.70;19.47;;;;;;;;;;5020786;28;20454;-86
2021/05/17 03:52:32;;;;;;;20.60;19.30;;;;;;;;;;5038048;28;20439;-86
2021/05/17 03:55:00;;;;;;;20.50;19.13;;;;;;;;;;5038686;28;20441;-86
2021/05/17 03:57:26;;;;;;;20.97;19.57;;;;;;;;;;5037957;28;20424;-86
2021/05/17 03:59:54;;;;;;;20.42;19.33;;;;;;;;;;5037681;28;20451;-86
2021/05/17 04:02:23;;;;;;;21.43;20.33;;;;;;;;;;5038431;28;20199;-86
2021/05/17 04:04:58;;;;;;;19.67;18.57;;;;;;;;;;5038136;28;20434;-86
2021/05/17 04:07:43;;;;;;;19.27;18.00;;;;;;;;;;5037779;28;20439;-86
2021/05/17 04:15:40;;;;;;;19.88;18.65;;;;;;;;;;5037462;28;20203;-86
2021/05/17 04:18:08;;;;;;;19.98;18.77;;;;;;;;;;5037409;28;20192;-86
2021/05/17 04:20:35;;;;;;;19.98;18.50;;;;;;;;;;5019515;28;20711;-86
2021/05/17 04:23:02;;;;;;;19.30;18.20;;;;;;;;;;5037357;28;20223;-86
2021/05/17 04:25:29;;;;;;;20.10;19.00;;;;;;;;;;5037249;28;20637;-86
2021/05/17 04:27:56;;;;;;;19.90;18.70;;;;;;;;;;5036861;28;20215;-86
2021/05/17 04:30:23;;;;;;;21.33;20.13;;;;;;;;;;5036431;28;20475;-81
2021/05/17 04:32:51;;;;;;;20.73;19.17;;;;;;;;;;5036493;28;20446;-81
2021/05/17 04:35:18;;;;;;;19.50;18.50;;;;;;;;;;5018700;28;20453;-81
2021/05/17 04:37:45;;;;;;;22.00;20.80;;;;;;;;;;5037098;28;20189;-86
2021/05/17 04:40:12;;;;;;;19.75;18.67;;;;;;;;;;5037122;28;20441;-86
2021/05/17 04:42:41;;;;;;;21.42;19.40;;;;;;;;;;5018314;28;20203;-82
2021/05/17 04:45:08;;;;;;;21.00;19.63;;;;;;;;;;5036480;28;20192;-81
2021/05/17 04:47:35;;;;;;;20.47;19.10;;;;;;;;;;5036321;28;20501;-81
2021/05/17 04:50:03;;;;;;;21.50;20.20;;;;;;;;;;5036583;28;20421;-86
2021/05/17 04:52:30;;;;;;;22.30;21.00;;;;;;;;;;5036877;28;20899;-86
2021/05/17 04:54:56;;;;;;;21.50;20.20;;;;;;;;;;5036614;28;20469;-81
2021/05/17 04:57:23;;;;;;;20.60;19.50;;;;;;;;;;5035838;28;20776;-81
2021/05/17 04:59:50;;;;;;;21.43;20.23;;;;;;;;;;5036068;28;20434;-81
2021/05/17 05:02:17;;;;;;;22.10;20.80;;;;;;;;;;5035575;28;20483;-81
2021/05/17 05:04:44;;;;;;;21.63;20.10;;;;;;;;;;5035930;28;20196;-81
2021/05/17 05:07:13;;;;;;;21.47;20.17;;;;;;;;;;5036805;28;20446;-81
2021/05/17 05:09:40;;;;;;;20.43;19.33;;;;;;;;;;5035632;28;20417;-81
2021/05/17 05:12:07;;;;;;;20.80;19.50;;;;;;;;;;5035583;28;20462;-80
2021/05/17 05:14:34;;;;;;;20.03;19.03;;;;;;;;;;5018136;28;20229;-81
2021/05/17 05:17:01;;;;;;;20.03;19.03;;;;;;;;;;5035824;28;20442;-81
2021/05/17 05:19:28;;;;;;;20.53;19.33;;;;;;;;;;5036559;28;20452;-81
2021/05/17 05:21:55;;;;;;;20.63;19.43;;;;;;;;;;5035743;28;20434;-81
2021/05/17 05:24:23;;;;;;;21.07;19.77;;;;;;;;;;5017978;28;21007;-82
2021/05/17 05:27:06;;;;;;;21.13;19.80;;;;;;;;;;5035380;28;20887;-81
2021/05/17 05:29:54;;;;;;;20.03;18.73;;;;;;;;;;5035351;28;20519;-81
2021/05/17 05:32:26;;;;;;;21.60;20.20;;;;;;;;;;5035275;28;20913;-81
2021/05/17 05:34:53;;;;;;;20.60;19.40;;;;;;;;;;5035528;28;20467;-81
2021/05/17 05:37:20;;;;;;;21.07;19.70;;;;;;;;;;5035393;28;20417;-81
2021/05/17 05:39:48;;;;;;;20.60;19.50;;;;;;;;;;5034895;28;20433;-81
2021/05/17 05:42:14;;;;;;;19.37;18.37;;;;;;;;;;5038539;28;20418;-82
2021/05/17 05:44:46;;;;;;;21.20;19.83;;;;;;;;;;5035591;28;20416;-81
2021/05/17 05:47:15;;;;;;;20.40;19.10;;;;;;;;;;5036512;28;20414;-80
2021/05/17 05:49:43;;;;;;;20.57;19.33;;;;;;;;;;5036855;28;20479;-81
2021/05/17 05:52:10;;;;;;;19.47;18.47;;;;;;;;;;5035761;28;20785;-81
2021/05/17 05:54:37;;;;;;;19.53;18.47;;;;;;;;;;5035118;28;20482;-82
2021/05/17 05:57:07;;;;;;;20.13;19.07;;;;;;;;;;5035711;28;20438;-81
2021/05/17 05:59:33;;;;;;;20.40;19.40;;;;;;;;;;5035361;28;20453;-81
2021/05/17 06:02:02;;;;;;;21.53;20.33;;;;;;;;;;5036311;28;20406;-81
2021/05/17 06:04:29;;;;;;;20.83;19.83;;;;;;;;;;5020066;28;20743;-81
2021/05/17 06:06:56;;;;;;;20.90;19.80;;;;;;;;;;5037764;28;20422;-81
2021/05/17 06:09:23;;;;;;;19.80;18.80;;;;;;;;;;5038022;28;20444;-81
2021/05/17 06:11:51;;;;;;;20.40;18.80;;;;;;;;;;5038020;28;20498;-81
2021/05/17 06:14:33;;;;;;;21.63;20.30;;;;;;;;;;5049202;28;20475;-80
2021/05/17 06:17:02;;;;;;;20.17;19.07;;;;;;;;;;5041784;28;20417;-81
2021/05/17 06:19:29;;;;;;;20.27;19.10;;;;;;;;;;5043120;28;20437;-81
2021/05/17 06:21:59;;;;;;;20.57;19.40;;;;;;;;;;5041646;28;20417;-81
2021/05/17 06:24:27;;;;;;;20.97;19.70;;;;;;;;;;5041030;28;20435;-81
2021/05/17 06:26:54;;;;;;;20.03;19.03;;;;;;;;;;5041846;28;20475;-81
2021/05/17 06:29:22;;;;;;;20.97;19.77;;;;;;;;;;5040467;28;20529;-81
2021/05/17 06:31:49;;;;;;;20.60;19.43;;;;;;;;;;5039585;28;20429;-81
2021/05/17 06:34:16;;;;;;;20.10;19.00;;;;;;;;;;5035814;28;20434;-81
2021/05/17 06:36:43;;;;;;;20.37;19.37;;;;;;;;;;5037148;28;20425;-81
2021/05/17 06:39:12;;;;;;;20.43;19.23;;;;;;;;;;5037066;28;20910;-81
2021/05/17 06:41:39;;;;;;;20.40;19.20;;;;;;;;;;5037167;28;20414;-81
2021/05/17 06:44:07;;;;;;;21.10;19.97;;;;;;;;;;5038774;28;20599;-81
2021/05/17 06:46:35;;;;;;;21.40;20.00;;;;;;;;;;5038493;28;20411;-81
2021/05/17 06:49:02;;;;;;;19.67;18.60;;;;;;;;;;5037152;28;20914;-86
2021/05/17 06:51:29;;;;;;;20.93;19.83;;;;;;;;;;5038691;28;20410;-80
2021/05/17 06:53:58;;;;;;;21.70;20.30;;;;;;;;;;5036915;28;20570;-80
2021/05/17 06:56:30;;;;;;;20.83;19.53;;;;;;;;;;5019792;28;20445;-80
2021/05/17 06:58:58;;;;;;;20.77;19.57;;;;;;;;;;5038808;28;20464;-80
2021/05/17 07:01:26;;;;;;;21.20;20.10;;;;;;;;;;5035378;28;20425;-80
2021/05/17 07:03:55;;;;;;;21.80;20.60;;;;;;;;;;5036680;28;20414;-81
2021/05/17 07:06:28;;;;;;;22.00;20.70;;;;;;;;;;5039919;28;20422;-82
2021/05/17 07:11:46;;;;;;;21.37;20.17;;;;;;;;;;5040747;28;20413;-81
2021/05/17 07:14:15;;;;;;;21.80;20.60;;;;;;;;;;5041474;28;20457;-80
2021/05/17 07:16:42;;;;;;;21.00;19.80;;;;;;;;;;5040110;28;20411;-81
2021/05/17 07:19:12;;;;;;;22.07;20.67;;;;;;;;;;5040123;28;20424;-79
2021/05/17 07:24:25;;;;;;;21.73;20.53;;;;;;;;;;5044755;28;20417;-80
2021/05/17 07:26:53;;;;;;;21.37;20.17;;;;;;;;;;5044420;28;20418;-81
2021/05/17 07:29:22;;;;;;;22.37;21.07;;;;;;;;;;5047161;28;20450;-81
2021/05/17 07:31:49;;;;;;;22.80;21.50;;;;;;;;;;5046458;28;20444;-81
2021/05/17 07:34:18;;;;;;;22.20;20.40;;;;;;;;;;5044109;28;20560;-81
2021/05/17 07:36:47;;;;;;;22.10;20.80;;;;;;;;;;5045083;28;20461;-80
2021/05/17 07:39:15;;;;;;;21.67;20.47;;;;;;;;;;5028382;28;20414;-80
2021/05/17 07:41:42;;;;;;;22.17;20.97;;;;;;;;;;5042992;28;20473;-79
2021/05/17 07:44:10;;;;;;;22.50;21.20;;;;;;;;;;5042244;28;20430;-79
2021/05/17 07:46:37;;;;;;;23.00;21.50;;;;;;;;;;5025459;28;20414;-80
2021/05/17 07:51:48;;;;;;;23.00;21.50;;;;;;;;;;5039412;28;20496;-79
2021/05/17 07:54:18;;;;;;;23.27;21.87;;;;;;;;;;5040610;28;20462;-80
2021/05/17 07:56:45;;;;;;;23.00;21.60;;;;;;;;;;5037026;28;20880;-80
2021/05/17 07:59:12;;;;;;;22.87;21.67;;;;;;;;;;5036795;28;20452;-80
2021/05/17 08:01:39;;;;;;;23.63;22.23;;;;;;;;;;5044275;28;20413;-80
2021/05/17 08:04:06;;;;;;;24.83;23.13;;;;;;;;;;5046879;28;20414;-81
2021/05/17 08:06:33;;;;;;;24.20;22.60;;;;;;;;;;5044609;28;20436;-79
2021/05/17 08:09:01;;;;;;;22.30;20.90;;;;;;;;;;5046792;28;20421;-80
2021/05/17 08:11:28;;;;;;;22.90;21.43;;;;;;;;;;5046389;28;20484;-80
2021/05/17 08:13:55;;;;;;;22.30;21.00;;;;;;;;;;5024954;28;20465;-80
2021/05/17 08:16:23;;;;;;;21.80;20.60;;;;;;;;;;5042315;28;20421;-77
2021/05/17 08:18:51;;;;;;;21.30;20.20;;;;;;;;;;5044749;28;20435;-77
2021/05/17 08:21:18;;;;;;;21.30;20.10;;;;;;;;;;5045387;28;20765;-77
2021/05/17 08:23:46;;;;;;;21.57;20.17;;;;;;;;;;5046007;28;20454;-77
2021/05/17 08:26:14;;;;;;;20.73;19.53;;;;;;;;;;5047662;28;20435;-77
2021/05/17 08:28:41;;;;;;;21.30;20.20;;;;;;;;;;5045539;28;20415;-77
2021/05/17 08:31:10;;;;;;;22.27;20.77;;;;;;;;;;5050355;28;20410;-76
2021/05/17 08:33:37;;;;;;;21.63;20.43;;;;;;;;;;5048274;28;20502;-77
2021/05/17 08:36:04;;;;;;;21.17;19.87;;;;;;;;;;5047288;28;20473;-76
2021/05/17 08:38:34;;;;;;;20.40;19.40;;;;;;;;;;5048633;28;20413;-87
2021/05/17 08:41:02;;;;;;;21.57;20.27;;;;;;;;;;5046201;28;20436;-79
2021/05/17 08:43:30;;;;;;;20.87;19.77;;;;;;;;;;5046900;28;20468;-76
2021/05/17 08:45:57;;;;;;;21.37;20.07;;;;;;;;;;5046199;28;20470;-81
2021/05/17 08:48:24;;;;;;;21.33;19.93;;;;;;;;;;5047010;28;20399;-77
2021/05/17 08:50:51;;;;;;;21.07;19.87;;;;;;;;;;5045106;28;20437;-76
2021/05/17 08:53:18;;;;;;;21.77;20.30;;;;;;;;;;5045561;28;20425;-77
2021/05/17 08:55:45;;;;;;;21.33;20.13;;;;;;;;;;5045237;28;20478;-77
2021/05/17 08:58:12;;;;;;;21.33;20.23;;;;;;;;;;5041477;28;20440;-77
2021/05/17 09:00:40;;;;;;;22.63;20.87;;;;;;;;;;5041626;28;20410;-77
2021/05/17 09:03:07;;;;;;;22.60;21.00;;;;;;;;;;5022969;28;20812;-77
2021/05/17 09:05:37;;;;;;;22.27;20.93;;;;;;;;;;5040954;28;20418;-77
2021/05/17 09:08:04;;;;;;;21.80;20.60;;;;;;;;;;5047301;28;20431;-76
2021/05/17 09:10:34;;;;;;;22.30;21.20;;;;;;;;;;5024842;28;20902;-77
2021/05/17 09:13:04;;;;;;;21.57;20.27;;;;;;;;;;5042116;28;20445;-78
2021/05/17 09:15:32;;;;;;;20.20;19.20;;;;;;;;;;5042558;28;20447;-77
2021/05/17 09:18:00;;;;;;;19.57;18.53;;;;;;;;;;5042397;28;20419;-76
2021/05/17 09:20:34;;;;;;;18.80;17.90;;;;;;;;;;5043411;28;20450;-78
2021/05/17 09:23:15;;;;;;;18.83;17.93;;;;;;;;;;5044701;28;20418;-76
2021/05/17 09:25:55;;;;;;;18.70;17.80;;;;;;;;;;5045200;28;20462;-76
2021/05/17 09:28:24;;;;;;;18.40;17.50;;;;;;;;;;5044643;28;20930;-76
2021/05/17 09:30:52;;;;;;;18.10;17.20;;;;;;;;;;5044667;28;20471;-77
2021/05/17 09:33:21;;;;;;;19.00;18.10;;;;;;;;;;5043179;28;20460;-77
2021/05/17 09:35:51;;;;;;;19.43;18.33;;;;;;;;;;5020880;28;20425;-77
2021/05/17 09:38:19;;;;;;;19.77;18.77;;;;;;;;;;5038026;28;20446;-77
2021/05/17 09:40:46;;;;;;;19.63;18.43;;;;;;;;;;5035597;28;20411;-77
2021/05/17 09:43:16;;;;;;;19.77;18.53;;;;;;;;;;5035766;28;20465;-77
2021/05/17 09:45:44;;;;;;;19.70;18.60;;;;;;;;;;5035499;28;20766;-76
2021/05/17 09:48:11;;;;;;;20.90;19.60;;;;;;;;;;5035334;28;20435;-79
2021/05/17 09:50:57;;;;;;;20.63;19.53;;;;;;;;;;5018666;28;20403;-79
2021/05/17 09:53:25;;;;;;;21.00;19.70;;;;;;;;;;5036420;28;20539;-79
2021/05/17 09:55:52;;;;;;;20.20;19.00;;;;;;;;;;5036692;28;20443;-79
2021/05/17 09:58:32;;;;;;;20.80;19.20;;;;;;;;;;5035912;28;20865;-78
2021/05/17 10:01:06;;;;;;;20.77;19.57;;;;;;;;;;5037960;28;20433;-80
2021/05/17 10:04:03;;;;;;;19.57;18.50;;;;;;;;;;5028979;28;20408;-81
2021/05/17 10:06:30;;;;;;;18.50;17.60;;;;;;;;;;5053458;28;20414;-81
2021/05/17 10:08:59;;;;;;;19.80;18.50;;;;;;;;;;5054818;28;20414;-80
2021/05/17 10:11:27;;;;;;;19.67;18.57;;;;;;;;;;5050522;28;20449;-81
2021/05/17 10:13:55;;;;;;;19.50;18.50;;;;;;;;;;5051369;28;20582;-88
2021/05/17 10:16:23;;;;;;;19.13;18.03;;;;;;;;;;5045469;28;21000;-84
2021/05/17 10:18:50;;;;;;;19.63;18.53;;;;;;;;;;5048893;28;20934;-82
2021/05/17 10:21:18;;;;;;;19.20;18.10;;;;;;;;;;5049056;28;20412;-85
2021/05/17 10:23:46;;;;;;;20.37;19.00;;;;;;;;;;5053613;28;20771;-89
2021/05/17 10:26:15;;;;;;;19.10;17.93;;;;;;;;;;5044955;28;20405;-83
2021/05/17 10:28:44;;;;;;;19.37;18.47;;;;;;;;;;5056789;28;20409;-84
2021/05/17 10:31:12;;;;;;;20.13;18.87;;;;;;;;;;5047816;28;20465;-86
2021/05/17 10:33:43;;;;;;;20.90;19.60;;;;;;;;;;5038305;28;20471;-83
2021/05/17 10:36:15;;;;;;;21.40;20.10;;;;;;;;;;5044058;28;20430;-87
2021/05/17 10:38:51;;;;;;;19.77;18.67;;;;;;;;;;5032707;23;20475;-87
2021/05/17 10:44:17;;;;;;;20.67;19.63;;;;;;;;;;5018980;28;20445;-87
2021/05/17 10:46:50;;;;;;;21.53;20.13;;;;;;;;;;5023735;28;20492;-91
2021/05/17 10:49:21;;;;;;;21.90;20.60;;;;;;;;;;5005195;28;20423;-89
2021/05/17 10:51:51;;;;;;;20.10;19.00;;;;;;;;;;5021244;28;20448;-79
2021/05/17 10:54:25;;;;;;;22.13;20.83;;;;;;;;;;5029706;28;20450;-76
2021/05/17 10:57:01;;;;;;;20.90;19.73;;;;;;;;;;5024607;28;20415;-78
2021/05/17 11:02:22;;;;;;;20.93;19.57;;;;;;;;;;5023699;28;20403;-78
2021/05/17 11:05:07;;;;;;;20.43;19.30;;;;;;;;;;5021819;28;20970;-78
2021/05/17 11:07:35;;;;;;;21.23;19.90;;;;;;;;;;5033258;28;20423;-77
2021/05/17 11:10:07;;;;;;;22.27;20.97;;;;;;;;;;5036773;28;20414;-77
2021/05/17 11:13:11;;;;;;;22.00;20.60;;;;;;;;;;5039828;28;20502;-76
2021/05/17 11:16:21;;;;;;;21.57;20.27;;;;;;;;;;4939055;29;20941;-81
2021/05/17 11:18:51;;;;;;;21.20;20.00;;;;;;;;;;4946554;28;20496;-82
2021/05/17 11:21:23;;;;;;;22.50;21.00;;;;;;;;;;4943945;29;20463;-80
2021/05/17 11:23:52;;;;;;;22.20;20.90;;;;;;;;;;4935432;29;20442;-79
2021/05/17 11:26:21;;;;;;;21.70;20.40;;;;;;;;;;4936964;29;20427;-83
2021/05/17 11:28:56;;;;;;;22.47;20.70;;;;;;;;;;4946492;29;20445;-82
2021/05/17 11:34:29;;;;;;;21.87;20.67;;;;;;;;;;4944704;29;20565;-79
2021/05/17 11:37:20;;;;;;;22.67;21.27;;;;;;;;;;4942989;29;20414;-80
2021/05/17 11:40:03;;;;;;;21.93;20.60;;;;;;;;;;4938984;29;20427;-79
2021/05/17 11:42:35;;;;;;;22.10;20.80;;;;;;;;;;4945650;29;20422;-80
2021/05/17 11:45:12;;;;;;;22.40;21.00;;;;;;;;;;4945806;29;20443;-79
2021/05/17 11:47:39;;;;;;;22.00;20.80;;;;;;;;;;4943086;29;20929;-77
2021/05/17 11:50:08;;;;;;;22.00;20.63;;;;;;;;;;4950824;28;20441;-79
2021/05/17 11:52:36;;;;;;;22.73;21.33;;;;;;;;;;5024745;28;20503;-78
2021/05/17 11:55:06;;;;;;;22.30;21.10;;;;;;;;;;5026521;28;20503;-79
2021/05/17 11:57:34;;;;;;;22.40;21.10;;;;;;;;;;5025881;28;20468;-78
2021/05/17 12:00:02;;;;;;;21.70;20.50;;;;;;;;;;5026474;28;20447;-77
2021/05/17 12:02:28;;;;;;;21.87;20.60;;;;;;;;;;5025621;28;20417;-77
2021/05/17 12:04:55;;;;;;;21.57;20.37;;;;;;;;;;5024716;28;20434;-76
2021/05/17 12:07:23;;;;;;;20.87;19.67;;;;;;;;;;5024214;28;20444;-76
2021/05/17 12:09:51;;;;;;;21.77;20.57;;;;;;;;;;5023303;28;20811;-77
2021/05/17 12:12:19;;;;;;;22.17;20.77;;;;;;;;;;5023883;28;20416;-76
2021/05/17 12:14:46;;;;;;;21.80;20.60;;;;;;;;;;5023654;28;20811;-76
2021/05/17 12:17:14;;;;;;;21.77;20.57;;;;;;;;;;5023192;28;20504;-76
2021/05/17 12:19:45;;;;;;;20.87;19.67;;;;;;;;;;5026977;28;20425;-76
2021/05/17 12:22:15;;;;;;;21.73;20.40;;;;;;;;;;5024474;28;20915;-76
2021/05/17 12:24:44;;;;;;;21.87;20.57;;;;;;;;;;5026650;28;20419;-76
2021/05/17 12:27:11;;;;;;;20.73;19.53;;;;;;;;;;5022862;28;20424;-76
2021/05/17 12:29:55;;;;;;;20.70;19.40;;;;;;;;;;5005528;28;20469;-76
2021/05/17 12:32:23;;;;;;;21.50;19.87;;;;;;;;;;5023405;28;20498;-78
2021/05/17 12:34:59;;;;;;;20.30;19.20;;;;;;;;;;5027881;28;20489;-76
2021/05/17 12:37:28;;;;;;;20.80;19.70;;;;;;;;;;5025457;28;20474;-76
2021/05/17 12:40:13;;;;;;;20.80;19.60;;;;;;;;;;5024023;28;20429;-77
2021/05/17 12:42:41;;;;;;;20.00;19.00;;;;;;;;;;5025113;28;20441;-76
2021/05/17 12:45:09;;;;;;;20.27;19.07;;;;;;;;;;5025450;28;20437;-77
2021/05/17 12:47:39;;;;;;;20.23;19.20;;;;;;;;;;5025436;28;20908;-77
2021/05/17 12:50:07;;;;;;;19.70;18.70;;;;;;;;;;5024348;28;20433;-77
2021/05/17 12:52:42;;;;;;;19.50;18.50;;;;;;;;;;5021829;28;20806;-89
2021/05/17 12:55:18;;;;;;;20.13;19.03;;;;;;;;;;5016873;28;20456;-79
2021/05/17 12:57:55;;;;;;;20.43;19.20;;;;;;;;;;5021943;28;20418;-79
2021/05/17 13:00:36;;;;;;;20.20;19.10;;;;;;;;;;5017539;28;20439;-87
2021/05/17 13:03:09;;;;;;;19.60;18.50;;;;;;;;;;5018691;28;20792;-78
2021/05/17 13:05:53;;;;;;;19.50;18.50;;;;;;;;;;5025627;28;20469;-79
2021/05/17 13:08:20;;;;;;;20.03;18.93;;;;;;;;;;5001975;28;20434;-76
2021/05/17 13:10:55;;;;;;;20.33;19.30;;;;;;;;;;5018607;28;20764;-89
2021/05/17 13:13:39;;;;;;;19.60;18.60;;;;;;;;;;5019720;28;20503;-83
2021/05/17 13:16:05;;;;;;;20.83;19.73;;;;;;;;;;5019109;28;20427;-91
2021/05/17 13:18:47;;;;;;;20.50;19.50;;;;;;;;;;5025484;28;20447;-79
2021/05/17 13:21:15;;;;;;;20.83;19.67;;;;;;;;;;5024041;28;20421;-80
2021/05/17 13:24:07;;;;;;;20.50;19.40;;;;;;;;;;5021594;28;20419;-79
2021/05/17 13:32:06;;;;;;;20.77;19.57;;;;;;;;;;5018810;28;20407;-79
2021/05/17 13:34:33;;;;;;;20.67;19.40;;;;;;;;;;5017529;28;20458;-79
2021/05/17 13:37:01;;;;;;;20.80;19.60;;;;;;;;;;5000493;28;20511;-79
2021/05/17 13:39:29;;;;;;;20.00;19.00;;;;;;;;;;4996385;28;20471;-79
2021/05/17 13:41:57;;;;;;;19.53;18.53;;;;;;;;;;4998626;28;20965;-80
2021/05/17 13:44:29;;;;;;;21.77;19.77;;;;;;;;;;4993085;28;20454;-82
2021/05/17 13:46:58;;;;;;;40.07;38.13;;;;;;;;;;5000864;28;20926;-79
2021/05/17 13:49:25;;;;;;;38.17;35.77;;;;;;;;;;5002459;28;20478;-79
2021/05/17 13:51:52;;;;;;;37.10;35.30;;;;;;;;;;5002530;28;20432;-79
2021/05/17 13:54:20;;;;;;;34.37;32.67;;;;;;;;;;5004392;28;20448;-79
2021/05/17 13:56:47;;;;;;;28.63;27.13;;;;;;;;;;5002153;28;20447;-78
2021/05/17 13:59:15;;;;;;;30.27;28.53;;;;;;;;;;4981479;28;20474;-80
2021/05/17 14:01:43;;;;;;;28.97;27.37;;;;;;;;;;4976457;28;20999;-80
2021/05/17 14:04:11;;;;;;;30.50;28.20;;;;;;;;;;4976700;28;20418;-79
2021/05/17 14:06:38;;;;;;;30.17;28.47;;;;;;;;;;4978430;28;20424;-78
2021/05/17 14:09:05;;;;;;;27.80;26.40;;;;;;;;;;4976550;28;20516;-79
2021/05/17 14:11:32;;;;;;;28.67;26.87;;;;;;;;;;4976123;28;20438;-79
2021/05/17 14:13:59;;;;;;;27.27;25.93;;;;;;;;;;4975513;28;20588;-78
2021/05/17 14:16:27;;;;;;;27.83;26.53;;;;;;;;;;4974864;28;20978;-78
2021/05/17 14:18:54;;;;;;;25.80;24.30;;;;;;;;;;4976376;28;20446;-78
2021/05/17 14:21:21;;;;;;;26.03;24.63;;;;;;;;;;4976273;28;20475;-78
2021/05/17 14:23:48;;;;;;;25.10;23.80;;;;;;;;;;4975882;28;20421;-78
2021/05/17 14:26:15;;;;;;;24.37;22.93;;;;;;;;;;4976658;28;20779;-78
2021/05/17 14:28:46;;;;;;;24.37;22.93;;;;;;;;;;4977098;28;20449;-78
2021/05/17 14:31:14;;;;;;;23.53;22.10;;;;;;;;;;4977173;28;20418;-78
2021/05/17 14:33:41;;;;;;;21.70;20.60;;;;;;;;;;4977989;28;20791;-78
2021/05/17 14:36:09;;;;;;;22.60;20.97;;;;;;;;;;4977565;28;20414;-78
2021/05/17 14:38:36;;;;;;;21.73;20.40;;;;;;;;;;4979832;28;20510;-78
2021/05/17 14:41:03;;;;;;;20.67;19.57;;;;;;;;;;4976367;28;20443;-78
2021/05/17 14:43:31;;;;;;;21.20;20.10;;;;;;;;;;4982233;28;20539;-78
2021/05/17 14:45:58;;;;;;;21.37;20.10;;;;;;;;;;4980662;28;20414;-77
2021/05/17 14:48:29;;;;;;;20.53;19.50;;;;;;;;;;4982887;28;20864;-77
2021/05/17 14:51:08;;;;;;;20.47;19.47;;;;;;;;;;4985924;28;20439;-77
2021/05/17 14:53:35;;;;;;;19.97;18.97;;;;;;;;;;4977435;28;20440;-78
2021/05/17 14:56:02;;;;;;;21.00;19.90;;;;;;;;;;4975377;28;20541;-78